KMYR/MYR METAR and TAF weather

Enter ICAO airport designator
Station Type Date Time Source
KMYR METAR 2022/11/26 07:56 UTC NOAA

KMYR 260756Z AUTO 36009KT 10SM CLR 12/08 A3014 RMK AO2 SLP204 P0001 T01220078


Station Type Date Time Source
KMYR Decoded METAR 2022/11/26 07:56 UTC NOAA

Myrtle Beach Air Force Base, SC, United States (KMYR) 33-41N 078-56W 8M
Nov 26, 2022 - 02:56 AM EST / 2022.11.26 0756 UTC
Wind: from the N (360 degrees) at 10 MPH (9 KT):0
Visibility: 10 mile(s):0
Sky conditions: clear
Precipitation last hour: 0.01 inches
Temperature: 54.0 F (12.2 C)
Dew Point: 46.0 F (7.8 C)
Relative Humidity: 74%
Pressure (altimeter): 30.14 in. Hg (1020 hPa)
ob: KMYR 260756Z AUTO 36009KT 10SM CLR 12/08 A3014 RMK AO2 SLP204 P0001 T01220078
cycle: 8

Station Type Date Time Source
KMYR TAF 2022/11/26 06:24 UTC NOAA

TAF KMYR 260521Z 2606/2706 35006KT P6SM FEW250
FM261300 06011KT P6SM SKC
FM262000 13009KT P6SM SKC

Example: see airport list